Time;durP1;ratioP1;P1;durP2;ratioP2;P2;SDS_P1;SDS_P2;PMS_P1;PMS_P2;Temp;Humidity;BMP_temperature;BMP_pressure;BME280_temperature;BME280_humidity;BME280_pressure;Samples;Min_cycle;Max_cycle;Signal;HPM_P1;HPM_P2
2022/03/17 00:45:57;;;;;;;32.33;25.33;;;12.40;99.90;;;;;;5051048;28;20544;-59
2022/03/17 00:48:23;;;;;;;33.40;24.50;;;12.30;99.90;;;;;;5053118;28;20179;-58
2022/03/17 00:50:48;;;;;;;33.22;25.73;;;12.30;99.90;;;;;;5053044;28;20178;-60
2022/03/17 00:53:14;;;;;;;32.17;25.42;;;12.30;99.90;;;;;;5053036;28;20636;-60
2022/03/17 00:55:39;;;;;;;32.33;25.00;;;12.20;99.90;;;;;;5052846;28;20206;-57
2022/03/17 00:58:05;;;;;;;32.08;25.55;;;12.40;99.90;;;;;;5051557;28;20552;-58
2022/03/17 01:00:31;;;;;;;31.80;25.23;;;12.20;99.90;;;;;;5052810;28;20221;-58
2022/03/17 01:02:57;;;;;;;31.60;24.67;;;12.30;99.90;;;;;;5052815;28;20190;-58
2022/03/17 01:05:23;;;;;;;29.08;23.90;;;12.20;99.90;;;;;;5052836;28;20182;-58
2022/03/17 01:07:54;;;;;;;26.48;22.98;;;12.10;99.90;;;;;;5054068;28;20187;-58
2022/03/17 01:10:20;;;;;;;22.85;18.92;;;12.20;99.90;;;;;;5057012;28;20690;-58
2022/03/17 01:12:47;;;;;;;17.40;15.23;;;12.20;99.90;;;;;;5055588;28;20224;-58
2022/03/17 01:15:18;;;;;;;17.50;15.45;;;12.30;99.90;;;;;;5056478;28;20211;-58
2022/03/17 01:17:44;;;;;;;17.40;15.60;;;12.30;99.90;;;;;;5056843;28;20230;-58
2022/03/17 01:20:11;;;;;;;17.80;15.90;;;12.20;99.90;;;;;;5055482;28;20175;-60
2022/03/17 01:22:36;;;;;;;17.67;15.85;;;12.20;99.90;;;;;;5056578;28;20220;-58
2022/03/17 01:25:03;;;;;;;18.08;16.17;;;12.10;99.90;;;;;;5056381;28;20266;-58
2022/03/17 01:27:29;;;;;;;17.65;16.05;;;12.10;99.90;;;;;;5055189;28;20182;-58
2022/03/17 01:29:55;;;;;;;17.98;16.20;;;12.10;99.90;;;;;;5055287;28;20175;-60
2022/03/17 01:32:22;;;;;;;18.42;16.63;;;12.00;99.90;;;;;;5056234;28;20179;-58
2022/03/17 01:34:49;;;;;;;18.77;16.85;;;11.80;99.90;;;;;;5055063;28;20185;-58
2022/03/17 01:37:15;;;;;;;19.60;17.73;;;11.80;99.90;;;;;;5056253;28;20675;-58
2022/03/17 01:39:41;;;;;;;21.25;19.05;;;11.70;99.90;;;;;;5056209;28;20175;-58
2022/03/17 01:42:09;;;;;;;24.15;21.63;;;11.70;99.90;;;;;;5056134;28;20182;-58
2022/03/17 01:44:35;;;;;;;25.02;22.45;;;11.60;99.90;;;;;;5055657;28;20195;-60
2022/03/17 01:49:46;;;;;;;26.23;22.27;;;11.20;99.90;;;;;;5056283;28;20190;-58
2022/03/17 01:52:12;;;;;;;26.15;22.75;;;11.20;99.90;;;;;;5054792;28;20648;-58
2022/03/17 01:54:38;;;;;;;21.83;17.77;;;11.10;99.90;;;;;;5055886;28;20180;-58
2022/03/17 01:57:06;;;;;;;20.17;16.00;;;11.20;99.90;;;;;;5056013;28;20286;-58
2022/03/17 01:59:33;;;;;;;24.45;16.05;;;11.10;99.90;;;;;;5055863;28;20232;-58
2022/03/17 02:01:59;;;;;;;18.08;14.65;;;10.90;99.90;;;;;;5056220;28;20180;-58
2022/03/17 02:04:25;;;;;;;17.85;13.88;;;10.80;99.90;;;;;;5055902;28;20595;-60
2022/03/17 02:06:51;;;;;;;17.33;14.05;;;10.80;99.90;;;;;;5054547;28;20231;-59
2022/03/17 02:09:19;;;;;;;16.73;12.82;;;10.60;99.90;;;;;;5055834;28;20254;-58
2022/03/17 02:14:34;;;;;;;14.13;10.90;;;10.60;99.90;;;;;;5055879;28;20206;-58
2022/03/17 02:17:00;;;;;;;11.90;10.75;;;10.40;99.90;;;;;;5055525;28;20199;-58
2022/03/17 02:19:26;;;;;;;12.20;10.05;;;10.30;99.90;;;;;;5053391;28;20179;-59
2022/03/17 02:21:52;;;;;;;12.75;10.02;;;10.20;99.90;;;;;;5055358;28;20585;-60
2022/03/17 02:27:03;;;;;;;11.90;10.20;;;10.40;99.90;;;;;;5055673;28;20236;-58
2022/03/17 02:29:31;;;;;;;11.40;10.20;;;10.40;99.90;;;;;;5054107;28;20274;-60
2022/03/17 02:31:57;;;;;;;14.07;10.65;;;10.50;99.90;;;;;;5055272;28;20615;-60
2022/03/17 02:34:23;;;;;;;11.32;10.23;;;10.40;99.90;;;;;;5055075;28;20186;-60
2022/03/17 02:36:50;;;;;;;11.38;10.27;;;10.40;99.90;;;;;;5055239;28;20691;-60
2022/03/17 02:39:18;;;;;;;11.90;10.50;;;10.30;99.90;;;;;;5055268;28;20183;-60
2022/03/17 02:41:45;;;;;;;13.15;11.27;;;10.30;99.90;;;;;;5055182;28;20171;-58
2022/03/17 02:44:11;;;;;;;13.25;10.82;;;10.40;99.90;;;;;;5055185;28;20168;-58
2022/03/17 02:46:37;;;;;;;14.18;11.48;;;10.20;99.90;;;;;;5054394;28;20670;-58
2022/03/17 02:49:04;;;;;;;14.65;12.57;;;10.30;99.90;;;;;;5055408;28;20205;-58
2022/03/17 02:51:29;;;;;;;13.68;12.13;;;10.40;99.90;;;;;;5055001;28;20167;-58
2022/03/17 02:53:55;;;;;;;13.98;11.98;;;10.40;99.90;;;;;;5054880;28;20184;-58
2022/03/17 02:56:21;;;;;;;13.07;11.70;;;10.40;99.90;;;;;;5053451;28;20679;-58
2022/03/17 02:58:46;;;;;;;14.52;12.15;;;10.20;99.90;;;;;;5055122;28;20180;-58
2022/03/17 03:01:12;;;;;;;13.63;11.93;;;10.20;99.90;;;;;;5054622;28;20183;-58
2022/03/17 03:03:38;;;;;;;13.77;12.15;;;10.30;99.90;;;;;;5053536;28;20563;-58
2022/03/17 03:06:03;;;;;;;14.60;12.85;;;10.20;99.90;;;;;;5054582;28;20254;-58
2022/03/17 03:08:29;;;;;;;14.48;12.98;;;10.10;99.90;;;;;;5054533;28;20176;-58
2022/03/17 03:10:57;;;;;;;13.63;12.32;;;10.20;99.90;;;;;;5053464;28;20624;-59
2022/03/17 03:13:22;;;;;;;13.85;11.98;;;10.30;99.90;;;;;;5053284;28;20167;-58
2022/03/17 03:15:50;;;;;;;13.05;11.13;;;10.30;99.90;;;;;;5054318;28;20182;-58
2022/03/17 03:18:16;;;;;;;13.38;11.85;;;10.10;99.90;;;;;;5054474;28;20582;-59
2022/03/17 03:20:42;;;;;;;13.57;10.93;;;10.20;99.90;;;;;;5054436;28;20203;-59
2022/03/17 03:23:08;;;;;;;13.48;12.07;;;10.20;99.90;;;;;;5053056;28;20175;-58
2022/03/17 03:25:34;;;;;;;12.65;11.35;;;10.30;99.90;;;;;;5054268;28;20175;-58
2022/03/17 03:28:07;;;;;;;11.40;10.20;;;10.10;99.90;;;;;;5054241;28;20230;-58
2022/03/17 03:30:33;;;;;;;11.60;10.50;;;10.10;99.90;;;;;;5053930;28;20262;-58
2022/03/17 03:32:59;;;;;;;12.05;10.85;;;10.00;99.90;;;;;;5054328;28;20199;-58
2022/03/17 03:38:09;;;;;;;10.80;9.70;;;10.00;99.90;;;;;;5053900;28;20213;-58
2022/03/17 03:40:35;;;;;;;14.20;10.55;;;10.10;99.90;;;;;;5053977;28;20258;-58
2022/03/17 03:43:01;;;;;;;10.27;9.15;;;10.10;99.90;;;;;;5053759;28;20259;-59
2022/03/17 03:45:26;;;;;;;11.00;9.88;;;10.10;99.90;;;;;;5053978;28;20195;-58
2022/03/17 03:47:52;;;;;;;10.70;9.60;;;10.10;99.90;;;;;;5052728;28;20189;-58
2022/03/17 03:50:18;;;;;;;11.93;9.75;;;10.00;99.90;;;;;;5053906;28;20178;-58
2022/03/17 03:52:44;;;;;;;11.07;9.93;;;10.00;99.90;;;;;;5036124;28;20227;-58
2022/03/17 03:55:10;;;;;;;11.68;10.48;;;10.00;99.90;;;;;;5053451;28;20186;-58
2022/03/17 03:57:36;;;;;;;11.40;10.30;;;10.00;99.90;;;;;;5053549;28;20238;-58
2022/03/17 04:00:16;;;;;;;11.25;10.07;;;10.00;99.90;;;;;;5053836;28;20186;-58
2022/03/17 04:02:41;;;;;;;10.82;9.35;;;9.90;99.90;;;;;;5053664;28;20175;-58
2022/03/17 04:05:07;;;;;;;10.60;9.50;;;10.00;99.90;;;;;;5053636;28;20548;-58
2022/03/17 04:07:33;;;;;;;10.43;9.32;;;10.10;99.90;;;;;;5053474;28;20183;-59
2022/03/17 04:09:59;;;;;;;10.48;9.18;;;10.10;99.90;;;;;;5052246;28;20175;-59
2022/03/17 04:12:24;;;;;;;10.25;8.68;;;10.00;99.90;;;;;;5053374;28;20172;-59
2022/03/17 04:14:50;;;;;;;9.40;8.50;;;10.00;99.90;;;;;;5053350;28;20228;-59
2022/03/17 04:17:16;;;;;;;9.15;8.23;;;9.90;99.90;;;;;;5053368;28;20273;-59
2022/03/17 04:19:41;;;;;;;8.73;7.93;;;9.90;99.90;;;;;;5052133;28;20222;-59
2022/03/17 04:22:07;;;;;;;8.88;8.07;;;9.90;99.90;;;;;;5053338;28;20183;-59
2022/03/17 04:24:33;;;;;;;10.05;8.43;;;9.90;99.90;;;;;;5053076;28;20172;-59
2022/03/17 04:26:59;;;;;;;8.57;7.78;;;9.80;99.90;;;;;;5052306;28;20175;-59
2022/03/17 04:29:24;;;;;;;9.43;8.32;;;9.80;99.90;;;;;;5053276;28;20175;-59
2022/03/17 04:31:50;;;;;;;9.27;8.38;;;9.90;99.90;;;;;;5053063;28;20176;-59
2022/03/17 04:34:16;;;;;;;10.23;8.85;;;9.90;99.90;;;;;;5053236;28;20171;-59
2022/03/17 04:36:42;;;;;;;12.60;8.70;;;9.90;99.90;;;;;;5053027;28;20237;-59
2022/03/17 04:39:10;;;;;;;11.38;8.60;;;9.80;99.90;;;;;;5053016;28;20521;-58
2022/03/17 04:41:36;;;;;;;8.57;7.75;;;9.80;99.90;;;;;;5052998;28;20168;-59
2022/03/17 04:44:02;;;;;;;9.23;8.27;;;9.90;99.90;;;;;;5058757;28;20187;-59
2022/03/17 04:46:27;;;;;;;9.27;8.25;;;9.70;99.90;;;;;;5059838;28;20183;-59
2022/03/17 04:48:53;;;;;;;9.57;8.43;;;9.80;99.90;;;;;;5059692;28;20178;-59
2022/03/17 04:51:19;;;;;;;10.05;8.10;;;9.70;99.90;;;;;;5059620;28;20217;-59
2022/03/17 04:53:45;;;;;;;9.20;8.40;;;9.80;99.90;;;;;;5059499;28;20266;-59
2022/03/17 04:56:12;;;;;;;10.13;8.90;;;9.80;99.90;;;;;;5059729;28;20171;-59
2022/03/17 04:58:40;;;;;;;9.57;8.43;;;9.70;99.90;;;;;;5059706;28;20175;-59
2022/03/17 05:01:07;;;;;;;10.18;8.85;;;9.70;99.90;;;;;;5059592;28;20194;-59
2022/03/17 05:03:34;;;;;;;10.45;9.35;;;9.60;99.90;;;;;;5059606;28;20171;-59
2022/03/17 05:06:01;;;;;;;12.50;9.50;;;9.70;99.90;;;;;;5059526;28;20194;-59
2022/03/17 05:08:27;;;;;;;10.02;9.00;;;9.70;99.90;;;;;;5058063;28;20232;-59
2022/03/17 05:10:53;;;;;;;10.00;9.00;;;9.60;99.90;;;;;;5059512;28;20183;-59
2022/03/17 05:13:22;;;;;;;11.63;9.80;;;9.70;99.90;;;;;;5059505;28;20174;-59
2022/03/17 05:15:48;;;;;;;10.35;9.27;;;9.60;99.90;;;;;;5059243;28;20274;-59
2022/03/17 05:18:14;;;;;;;10.07;9.05;;;9.70;99.90;;;;;;5059321;28;20225;-59
2022/03/17 05:20:43;;;;;;;11.52;9.60;;;9.60;99.90;;;;;;5059568;28;20163;-59
2022/03/17 05:23:12;;;;;;;13.82;10.13;;;9.60;99.90;;;;;;5059197;28;20676;-59
2022/03/17 05:25:39;;;;;;;11.40;9.93;;;9.60;99.90;;;;;;5059565;28;20183;-59
2022/03/17 05:28:06;;;;;;;11.55;10.35;;;9.60;99.90;;;;;;5058212;28;20168;-59
2022/03/17 05:30:32;;;;;;;11.85;10.02;;;9.70;99.90;;;;;;5059351;28;20171;-59
2022/03/17 05:32:59;;;;;;;11.73;9.75;;;9.50;99.90;;;;;;5059549;28;20206;-59
2022/03/17 05:35:24;;;;;;;11.63;10.43;;;9.50;99.90;;;;;;5057914;28;20708;-59
2022/03/17 05:37:50;;;;;;;11.43;10.00;;;9.60;99.90;;;;;;5059577;28;20215;-59
2022/03/17 05:40:18;;;;;;;14.05;10.57;;;9.60;99.90;;;;;;5059412;28;20198;-59
2022/03/17 05:42:47;;;;;;;11.30;10.05;;;9.60;99.90;;;;;;5059457;28;20640;-59
2022/03/17 05:45:15;;;;;;;10.23;9.00;;;9.60;99.90;;;;;;5059288;28;20198;-59
2022/03/17 05:47:52;;;;;;;10.82;8.73;;;9.60;99.90;;;;;;5059192;28;20574;-59
2022/03/17 05:50:21;;;;;;;11.18;8.90;;;9.60;99.90;;;;;;5059119;28;20631;-59
2022/03/17 05:52:48;;;;;;;9.98;8.77;;;9.60;99.90;;;;;;5059196;28;20175;-59
2022/03/17 05:55:16;;;;;;;10.27;7.97;;;9.60;99.90;;;;;;5055723;28;20179;-59
2022/03/17 05:57:45;;;;;;;11.15;8.70;;;9.50;99.90;;;;;;5055851;28;20482;-51
2022/03/17 06:00:13;;;;;;;8.82;8.02;;;9.50;99.90;;;;;;5055889;28;20171;-59
2022/03/17 06:02:39;;;;;;;9.30;7.78;;;9.50;99.90;;;;;;5055679;28;20258;-59
2022/03/17 06:05:06;;;;;;;11.77;8.50;;;9.40;99.90;;;;;;5055256;28;20262;-59
2022/03/17 06:07:36;;;;;;;9.68;7.68;;;9.40;99.90;;;;;;5055593;28;20305;-60
2022/03/17 06:10:03;;;;;;;8.57;7.35;;;9.50;99.90;;;;;;5055672;28;20375;-59
2022/03/17 06:12:30;;;;;;;8.73;7.78;;;9.50;99.90;;;;;;5055615;28;20179;-59
2022/03/17 06:14:57;;;;;;;8.60;7.70;;;9.60;99.90;;;;;;5055594;28;20237;-59
2022/03/17 06:17:23;;;;;;;8.18;7.35;;;9.50;99.90;;;;;;5055291;28;20214;-59
2022/03/17 06:19:48;;;;;;;7.22;6.53;;;9.50;99.90;;;;;;5055840;28;20187;-60
2022/03/17 06:22:14;;;;;;;6.95;6.20;;;9.40;99.90;;;;;;5055575;28;20172;-58
2022/03/17 06:24:40;;;;;;;9.85;8.18;;;9.30;99.90;;;;;;5054244;28;20171;-59
2022/03/17 06:27:05;;;;;;;7.78;6.00;;;9.20;99.90;;;;;;5055472;28;20179;-59
2022/03/17 06:29:31;;;;;;;7.35;5.70;;;9.30;99.90;;;;;;5055245;28;20175;-59
2022/03/17 06:31:57;;;;;;;6.60;5.90;;;9.40;99.90;;;;;;5055249;28;20636;-59
2022/03/17 06:34:23;;;;;;;8.38;6.28;;;9.20;99.90;;;;;;5053876;28;20180;-59
2022/03/17 06:36:48;;;;;;;7.53;5.78;;;9.10;99.90;;;;;;5055297;28;20210;-59
2022/03/17 06:39:14;;;;;;;7.93;5.88;;;9.20;99.90;;;;;;5055206;28;20179;-59
2022/03/17 06:41:39;;;;;;;6.88;6.15;;;9.10;99.90;;;;;;5055282;28;20175;-59
2022/03/17 06:44:05;;;;;;;6.57;5.40;;;9.10;99.90;;;;;;5054947;28;20175;-58
2022/03/17 06:46:31;;;;;;;5.97;5.38;;;9.10;99.90;;;;;;5054844;28;20180;-59
2022/03/17 06:48:57;;;;;;;7.55;5.50;;;9.10;99.90;;;;;;5053892;28;20182;-60
2022/03/17 06:51:22;;;;;;;8.02;4.93;;;9.00;99.90;;;;;;5054715;28;20183;-59
2022/03/17 06:53:48;;;;;;;6.00;5.00;;;8.90;99.90;;;;;;5054932;28;20251;-59
2022/03/17 06:56:14;;;;;;;6.72;4.70;;;8.80;99.90;;;;;;5054650;28;20183;-59
2022/03/17 06:58:39;;;;;;;6.05;4.45;;;8.70;99.90;;;;;;5054776;28;20186;-60
2022/03/17 07:01:05;;;;;;;6.28;4.45;;;8.60;99.90;;;;;;5054601;28;20204;-59
2022/03/17 07:03:31;;;;;;;9.05;4.65;;;8.70;99.90;;;;;;5054845;28;20206;-59
2022/03/17 07:05:56;;;;;;;8.23;4.47;;;8.50;99.90;;;;;;5054353;28;20182;-59
2022/03/17 07:08:22;;;;;;;4.78;4.28;;;8.50;99.90;;;;;;5054664;28;20517;-59
2022/03/17 07:10:47;;;;;;;6.53;4.60;;;8.60;99.90;;;;;;5054871;28;20175;-59
2022/03/17 07:13:13;;;;;;;6.00;4.35;;;8.50;99.90;;;;;;5054517;28;20301;-59
2022/03/17 07:15:39;;;;;;;5.60;4.13;;;8.60;99.90;;;;;;5052993;28;20186;-59
2022/03/17 07:18:05;;;;;;;7.53;3.90;;;8.50;99.90;;;;;;5054532;28;20211;-59
2022/03/17 07:20:30;;;;;;;6.72;4.30;;;8.50;99.90;;;;;;5054357;28;20174;-58
2022/03/17 07:22:56;;;;;;;7.82;4.45;;;8.50;99.90;;;;;;5054431;28;20262;-59
2022/03/17 07:25:24;;;;;;;9.90;4.95;;;8.60;99.90;;;;;;5053110;28;20247;-59
2022/03/17 07:27:49;;;;;;;6.78;5.13;;;8.60;99.90;;;;;;5054191;28;20536;-58
2022/03/17 07:30:20;;;;;;;6.43;4.20;;;8.60;99.90;;;;;;5054063;28;20254;-59
2022/03/17 07:32:52;;;;;;;6.53;4.47;;;8.60;99.90;;;;;;5054313;28;20187;-59
2022/03/17 07:35:19;;;;;;;5.85;3.10;;;8.60;99.90;;;;;;5054646;28;20183;-59
2022/03/17 07:37:45;;;;;;;6.63;3.35;;;8.60;99.90;;;;;;5054070;28;20567;-59
2022/03/17 07:40:12;;;;;;;3.83;3.10;;;8.60;99.90;;;;;;5036166;28;20171;-59
2022/03/17 07:42:38;;;;;;;3.88;2.97;;;8.60;99.90;;;;;;5052642;28;20262;-59
2022/03/17 07:45:05;;;;;;;4.70;3.05;;;8.50;99.90;;;;;;5053859;28;20283;-59
2022/03/17 07:47:32;;;;;;;5.28;3.00;;;8.50;99.90;;;;;;5053985;28;20172;-59
2022/03/17 07:49:59;;;;;;;3.50;2.95;;;8.60;99.90;;;;;;5053962;28;20229;-58
2022/03/17 07:52:24;;;;;;;4.55;2.85;;;8.80;99.90;;;;;;5053763;28;20179;-59
2022/03/17 07:54:50;;;;;;;6.15;3.20;;;8.90;99.90;;;;;;5054027;28;20253;-59
2022/03/17 07:57:16;;;;;;;5.88;2.47;;;8.90;99.90;;;;;;5053609;28;20214;-59
2022/03/17 07:59:42;;;;;;;3.67;2.60;;;8.70;99.90;;;;;;5053857;28;20179;-59
2022/03/17 08:02:08;;;;;;;4.13;2.88;;;8.70;99.90;;;;;;5053841;28;20258;-59
2022/03/17 08:04:34;;;;;;;4.72;2.40;;;8.70;99.90;;;;;;5053625;28;20176;-59
2022/03/17 08:07:01;;;;;;;4.07;2.58;;;8.80;99.90;;;;;;5053558;28;20187;-59
2022/03/17 08:09:27;;;;;;;4.85;2.58;;;8.60;99.90;;;;;;5053519;28;20180;-59
2022/03/17 08:11:53;;;;;;;5.95;5.35;;;8.60;99.90;;;;;;5053303;28;20178;-59
2022/03/17 08:14:18;;;;;;;11.80;10.15;;;8.70;99.90;;;;;;5053427;28;20184;-59
2022/03/17 08:16:44;;;;;;;7.28;4.57;;;8.60;99.90;;;;;;5053289;28;20202;-59
2022/03/17 08:19:13;;;;;;;3.63;2.83;;;8.70;99.90;;;;;;5052875;28;20525;-59
2022/03/17 08:21:40;;;;;;;3.33;2.42;;;8.80;99.90;;;;;;5053423;28;20175;-59
2022/03/17 08:24:09;;;;;;;6.13;2.97;;;8.80;99.90;;;;;;5053267;28;20179;-59
2022/03/17 08:26:37;;;;;;;5.13;2.83;;;8.90;99.90;;;;;;5053326;28;20175;-59
2022/03/17 08:29:03;;;;;;;9.13;5.03;;;9.20;99.90;;;;;;5052228;28;20536;-59
2022/03/17 08:31:29;;;;;;;3.05;2.08;;;9.00;99.90;;;;;;5053292;28;20180;-59
2022/03/17 08:33:58;;;;;;;5.05;2.10;;;8.90;99.90;;;;;;5053238;28;20687;-59
2022/03/17 08:36:25;;;;;;;5.88;2.50;;;8.90;99.90;;;;;;5053342;28;20647;-59
2022/03/17 08:38:51;;;;;;;4.78;2.58;;;8.90;99.90;;;;;;5052987;28;20248;-59
2022/03/17 08:41:17;;;;;;;5.55;2.20;;;8.90;99.90;;;;;;5052053;28;20203;-59
2022/03/17 08:43:43;;;;;;;3.65;2.30;;;8.90;99.90;;;;;;5053261;28;20213;-59
2022/03/17 08:51:37;;;;;;;2.17;1.83;;;9.00;99.90;;;;;;5052260;28;20197;-59
2022/03/17 08:54:03;;;;;;;2.95;2.25;;;8.90;99.90;;;;;;5053140;28;20254;-58
2022/03/17 08:56:29;;;;;;;2.58;2.15;;;8.90;99.90;;;;;;5052982;28;20276;-60
2022/03/17 08:58:55;;;;;;;2.15;1.83;;;8.90;99.90;;;;;;5053038;28;20186;-59
2022/03/17 09:01:21;;;;;;;4.20;2.42;;;9.10;99.90;;;;;;5052933;28;20229;-59
2022/03/17 09:03:47;;;;;;;4.60;2.20;;;9.20;99.90;;;;;;5053092;28;20183;-58
2022/03/17 09:06:12;;;;;;;3.25;2.45;;;9.20;99.90;;;;;;5053083;28;20186;-58
2022/03/17 09:08:41;;;;;;;5.22;2.67;;;9.50;99.90;;;;;;5051835;28;20206;-59
2022/03/17 09:11:07;;;;;;;5.03;2.88;;;9.60;99.90;;;;;;5052899;28;20168;-59
2022/03/17 09:13:33;;;;;;;3.97;2.67;;;9.20;99.90;;;;;;5052910;28;20183;-58
2022/03/17 09:15:59;;;;;;;4.60;2.75;;;9.30;99.90;;;;;;5053034;28;20172;-58
2022/03/17 09:18:27;;;;;;;3.80;2.47;;;9.30;99.90;;;;;;5051373;28;20223;-58
2022/03/17 09:20:53;;;;;;;3.45;1.98;;;9.30;99.90;;;;;;5052975;28;20183;-58
2022/03/17 09:23:19;;;;;;;4.05;3.15;;;9.20;99.90;;;;;;5052800;28;20535;-58
2022/03/17 09:25:45;;;;;;;6.03;2.90;;;9.10;99.90;;;;;;5052806;28;20210;-59
2022/03/17 09:28:11;;;;;;;3.65;3.28;;;9.10;99.90;;;;;;5052684;28;20178;-59
2022/03/17 09:30:37;;;;;;;5.15;3.17;;;9.20;99.90;;;;;;5056322;28;20182;-58
2022/03/17 09:33:04;;;;;;;3.70;2.80;;;9.30;99.90;;;;;;5056308;28;20226;-58
2022/03/17 09:35:30;;;;;;;4.13;2.72;;;9.30;99.90;;;;;;5056518;28;20236;-58
2022/03/17 09:37:56;;;;;;;4.28;3.00;;;9.40;99.90;;;;;;5056389;28;20561;-58
2022/03/17 09:40:22;;;;;;;3.20;2.85;;;9.50;99.90;;;;;;5056221;28;20171;-58
2022/03/17 09:42:48;;;;;;;4.45;3.30;;;9.50;99.90;;;;;;5056142;28;20178;-58
2022/03/17 09:45:14;;;;;;;3.30;2.65;;;9.50;99.90;;;;;;5056177;28;20219;-58
2022/03/17 09:47:43;;;;;;;3.60;2.72;;;9.40;99.90;;;;;;5055965;28;20236;-58
2022/03/17 09:50:13;;;;;;;5.85;3.83;;;9.40;99.90;;;;;;5056274;28;20179;-58
2022/03/17 09:52:41;;;;;;;4.22;3.30;;;9.40;99.90;;;;;;5056244;28;20540;-58
2022/03/17 09:55:10;;;;;;;4.18;3.30;;;9.30;99.90;;;;;;5056023;28;20163;-58
2022/03/17 09:57:45;;;;;;;4.38;3.03;;;9.30;99.90;;;;;;5055878;28;20679;-58
2022/03/17 10:00:12;;;;;;;5.25;3.00;;;9.60;99.90;;;;;;5055844;28;20174;-58
2022/03/17 10:02:39;;;;;;;5.07;3.10;;;9.70;99.90;;;;;;5055994;28;20266;-58
2022/03/17 10:05:06;;;;;;;3.30;2.95;;;9.90;99.90;;;;;;5054683;28;20246;-58
2022/03/17 10:07:35;;;;;;;3.97;2.80;;;10.00;99.90;;;;;;5054678;28;20333;-58
2022/03/17 10:10:01;;;;;;;4.63;3.40;;;9.70;99.90;;;;;;5055695;28;20643;-58
2022/03/17 10:12:30;;;;;;;5.72;3.70;;;9.70;99.90;;;;;;5055704;28;20229;-58
2022/03/17 10:14:56;;;;;;;10.02;6.55;;;9.60;99.90;;;;;;5055668;28;20273;-58
2022/03/17 10:17:36;;;;;;;14.25;8.93;;;9.70;99.90;;;;;;5055683;28;20567;-58
2022/03/17 10:20:22;;;;;;;8.25;4.68;;;9.80;99.90;;;;;;5055571;28;20167;-59
2022/03/17 10:22:56;;;;;;;5.38;3.47;;;10.10;99.90;;;;;;5055509;28;20176;-58
2022/03/17 10:25:24;;;;;;;6.13;3.88;;;10.10;99.90;;;;;;5055597;28;20171;-58
2022/03/17 10:27:54;;;;;;;4.97;3.55;;;9.90;99.90;;;;;;5055515;28;20176;-59
2022/03/17 10:30:24;;;;;;;5.30;3.70;;;10.00;99.90;;;;;;5055351;28;20655;-58
2022/03/17 10:32:58;;;;;;;5.07;3.72;;;10.10;99.90;;;;;;5055295;28;20171;-58
2022/03/17 10:35:29;;;;;;;6.35;4.00;;;9.90;99.90;;;;;;5055131;28;20175;-58
2022/03/17 10:37:55;;;;;;;8.20;5.00;;;9.80;99.90;;;;;;5055280;28;20219;-58
2022/03/17 10:40:30;;;;;;;7.30;4.50;;;9.70;99.90;;;;;;5054665;28;20175;-58
2022/03/17 10:43:17;;;;;;;7.65;5.10;;;9.50;99.90;;;;;;5055241;28;20170;-58
2022/03/17 10:45:43;;;;;;;7.00;4.75;;;9.70;99.90;;;;;;5055225;28;20282;-58
2022/03/17 10:48:09;;;;;;;7.13;4.68;;;9.90;99.90;;;;;;5054962;28;20278;-58
2022/03/17 10:50:43;;;;;;;6.75;4.20;;;10.20;99.90;;;;;;5055111;28;20221;-58
2022/03/17 10:53:09;;;;;;;4.93;4.20;;;10.50;99.90;;;;;;5055002;28;20194;-58
2022/03/17 10:55:36;;;;;;;5.10;4.00;;;10.30;99.90;;;;;;5054920;28;20198;-58
2022/03/17 10:58:12;;;;;;;5.68;4.15;;;10.60;99.90;;;;;;5054818;28;20297;-59
2022/03/17 11:00:53;;;;;;;7.90;3.42;;;10.70;99.90;;;;;;5054595;28;20637;-59
2022/03/17 11:03:21;;;;;;;4.00;3.42;;;10.60;99.90;;;;;;5055102;28;20217;-58
2022/03/17 11:05:56;;;;;;;5.07;3.60;;;10.80;99.90;;;;;;5054826;28;20187;-58
2022/03/17 11:08:22;;;;;;;5.25;3.88;;;10.60;99.90;;;;;;5054684;28;20181;-59
2022/03/17 11:10:49;;;;;;;6.22;3.67;;;10.50;99.90;;;;;;5054457;28;20171;-59
2022/03/17 11:13:15;;;;;;;6.72;3.90;;;10.40;99.90;;;;;;5054673;28;20186;-59
2022/03/17 11:16:08;;;;;;;4.63;3.50;;;10.20;99.90;;;;;;5054611;28;20179;-59
2022/03/17 11:18:40;;;;;;;5.38;3.90;;;10.00;99.90;;;;;;5053348;28;20226;-58
2022/03/17 11:21:25;;;;;;;3.75;3.35;;;10.00;99.90;;;;;;5054474;28;20630;-59
2022/03/17 11:24:06;;;;;;;5.50;3.20;;;10.40;99.90;;;;;;5054349;28;20171;-59
2022/03/17 11:26:37;;;;;;;6.47;3.63;;;10.70;99.90;;;;;;5054492;28;20199;-59
2022/03/17 11:29:05;;;;;;;6.88;4.03;;;10.60;99.90;;;;;;5054352;28;20183;-59
2022/03/17 11:31:53;;;;;;;4.20;3.70;;;10.60;99.90;;;;;;5054104;28;20271;-59
2022/03/17 11:34:38;;;;;;;3.67;3.33;;;10.40;99.90;;;;;;5054337;28;20254;-59
2022/03/17 11:37:19;;;;;;;4.65;3.50;;;10.40;99.90;;;;;;5054055;28;20193;-59
2022/03/17 11:40:16;;;;;;;4.03;3.45;;;10.50;99.90;;;;;;5054176;28;20175;-59
2022/03/17 11:42:52;;;;;;;4.95;3.55;;;10.70;99.90;;;;;;5053708;28;20644;-59
2022/03/17 11:45:18;;;;;;;3.80;3.40;;;10.90;99.90;;;;;;5054033;28;20195;-59
2022/03/17 11:47:49;;;;;;;4.57;3.70;;;10.90;99.90;;;;;;5053857;28;20178;-61
2022/03/17 11:50:36;;;;;;;3.53;3.13;;;10.80;99.90;;;;;;5053881;28;20229;-59
2022/03/17 11:53:06;;;;;;;4.47;3.05;;;10.90;99.90;;;;;;5053043;28;20567;-59
2022/03/17 11:55:52;;;;;;;4.22;3.20;;;11.00;99.90;;;;;;5053738;28;20175;-59
2022/03/17 11:58:43;;;;;;;4.63;3.25;;;11.00;99.90;;;;;;5053638;28;20207;-59
2022/03/17 12:01:12;;;;;;;3.45;2.95;;;11.20;99.90;;;;;;5050835;28;20777;-59
2022/03/17 12:03:50;;;;;;;5.93;2.90;;;11.10;99.90;;;;;;5053685;28;20183;-59
2022/03/17 12:06:20;;;;;;;5.30;2.92;;;11.10;99.90;;;;;;5053782;28;20528;-59
2022/03/17 12:09:08;;;;;;;4.18;2.55;;;10.90;99.90;;;;;;5053435;28;20648;-59
2022/03/17 12:11:47;;;;;;;2.33;2.13;;;10.90;99.90;;;;;;5053404;28;20195;-59
2022/03/17 12:14:22;;;;;;;2.75;2.15;;;11.10;99.90;;;;;;5053591;28;20594;-59
2022/03/17 12:16:56;;;;;;;3.53;2.45;;;11.00;99.90;;;;;;5053451;28;20244;-59
2022/03/17 12:19:36;;;;;;;3.25;2.25;;;11.00;99.90;;;;;;5053497;28;20232;-59
2022/03/17 12:22:10;;;;;;;2.92;2.50;;;11.10;99.90;;;;;;5053256;28;20195;-59
2022/03/17 12:25:13;;;;;;;3.67;2.20;;;11.20;99.90;;;;;;5053390;28;20175;-59
2022/03/17 12:27:40;;;;;;;4.40;2.60;;;11.20;99.90;;;;;;5052905;28;20191;-59
2022/03/17 12:30:11;;;;;;;5.28;2.22;;;11.30;99.90;;;;;;5051934;28;20201;-59
2022/03/17 12:32:49;;;;;;;3.08;2.20;;;11.20;99.90;;;;;;5053488;28;20179;-59
2022/03/17 12:35:16;;;;;;;5.13;2.38;;;11.10;99.90;;;;;;5053332;28;20259;-59
2022/03/17 12:37:42;;;;;;;4.13;2.47;;;11.10;99.90;;;;;;5053127;28;20260;-59
2022/03/17 12:40:20;;;;;;;3.20;2.10;;;11.10;99.90;;;;;;5053133;28;20168;-59
2022/03/17 12:42:48;;;;;;;2.72;2.03;;;11.20;99.90;;;;;;5053361;28;20182;-59
2022/03/17 12:45:16;;;;;;;2.72;2.40;;;11.20;99.90;;;;;;5053073;28;20187;-59
2022/03/17 12:47:46;;;;;;;4.35;1.98;;;11.30;99.90;;;;;;5053251;28;20182;-59
2022/03/17 12:50:18;;;;;;;2.90;2.30;;;11.20;99.90;;;;;;5053419;28;20202;-59
2022/03/17 12:52:45;;;;;;;3.40;2.30;;;11.10;99.90;;;;;;5053023;28;20167;-59
2022/03/17 12:55:13;;;;;;;3.80;2.13;;;11.20;99.90;;;;;;5052736;28;20175;-59
2022/03/17 12:57:39;;;;;;;7.13;2.60;;;11.30;99.90;;;;;;5053020;28;20199;-59
2022/03/17 13:00:13;;;;;;;5.97;2.80;;;11.20;99.90;;;;;;5053245;28;20171;-59
2022/03/17 13:02:46;;;;;;;4.07;2.30;;;11.20;99.90;;;;;;5053143;28;20544;-59
2022/03/17 13:08:00;;;;;;;3.00;2.00;;;11.30;99.90;;;;;;5057300;28;20236;-59
2022/03/17 13:10:27;;;;;;;4.57;2.42;;;11.20;99.90;;;;;;5056912;28;20177;-59
2022/03/17 13:15:37;;;;;;;4.85;2.55;;;11.50;99.90;;;;;;5055826;28;20724;-59
2022/03/17 13:18:05;;;;;;;3.50;2.63;;;11.60;99.90;;;;;;5056624;28;20640;-59
2022/03/17 13:20:31;;;;;;;5.95;2.40;;;11.70;99.90;;;;;;5056903;28;20180;-59
2022/03/17 13:22:57;;;;;;;4.57;2.10;;;11.80;99.90;;;;;;5056767;28;20635;-59
2022/03/17 13:25:23;;;;;;;3.17;1.83;;;12.00;99.90;;;;;;5056644;28;20221;-58
2022/03/17 13:27:57;;;;;;;4.18;1.92;;;11.90;99.70;;;;;;5056469;28;20176;-59
2022/03/17 13:30:22;;;;;;;4.07;2.30;;;12.00;99.90;;;;;;5056196;28;20624;-58
2022/03/17 13:33:03;;;;;;;4.35;2.20;;;12.00;99.90;;;;;;5056612;28;20254;-59
2022/03/17 13:35:35;;;;;;;4.82;2.10;;;11.90;99.90;;;;;;5056537;28;20213;-59
2022/03/17 13:38:05;;;;;;;4.15;2.00;;;11.70;99.90;;;;;;5056390;28;20206;-59
2022/03/17 13:40:44;;;;;;;4.75;2.03;;;11.70;99.90;;;;;;5056353;28;20172;-59
2022/03/17 13:43:10;;;;;;;3.53;1.88;;;11.70;99.90;;;;;;5056192;28;20313;-59
2022/03/17 13:45:39;;;;;;;8.80;2.03;;;11.60;99.90;;;;;;5056065;28;20195;-59
2022/03/17 13:48:06;;;;;;;5.85;1.88;;;11.50;99.90;;;;;;5056277;28;20635;-59
2022/03/17 13:50:39;;;;;;;3.28;1.90;;;11.40;99.90;;;;;;5056312;28;20262;-59
2022/03/17 13:53:12;;;;;;;3.35;1.60;;;11.50;99.90;;;;;;5056043;28;20636;-59
2022/03/17 13:56:02;;;;;;;3.08;1.90;;;11.40;99.90;;;;;;5055869;28;20266;-59
2022/03/17 13:58:29;;;;;;;4.47;1.75;;;11.50;99.90;;;;;;5056129;28;20211;-59